sensor_id;sensor_type;location;lat;lon;timestamp;pressure;altitude;pressure_sealevel;temperature;humidity
10115;BME280;5097;43.260;27.812;2022-10-17T00:02:24;101535.81;;;10.14;51.88
10115;BME280;5097;43.260;27.812;2022-10-17T00:05:08;101547.56;;;10.33;51.78
10115;BME280;5097;43.260;27.812;2022-10-17T00:07:53;101551.25;;;9.96;52.61
10115;BME280;5097;43.260;27.812;2022-10-17T00:10:39;101559.88;;;10.03;52.47
10115;BME280;5097;43.260;27.812;2022-10-17T00:13:23;101545.44;;;9.85;52.72
10115;BME280;5097;43.260;27.812;2022-10-17T00:16:08;101548.22;;;9.79;52.85
10115;BME280;5097;43.260;27.812;2022-10-17T00:18:52;101556.28;;;9.74;53.05
10115;BME280;5097;43.260;27.812;2022-10-17T00:21:36;101548.47;;;9.69;53.12
10115;BME280;5097;43.260;27.812;2022-10-17T00:24:19;101552.75;;;9.41;54.07
10115;BME280;5097;43.260;27.812;2022-10-17T00:27:04;101555.09;;;9.51;53.83
10115;BME280;5097;43.260;27.812;2022-10-17T00:29:49;101548.88;;;9.54;53.85
10115;BME280;5097;43.260;27.812;2022-10-17T00:32:32;101547.53;;;9.37;54.16
10115;BME280;5097;43.260;27.812;2022-10-17T00:35:16;101543.28;;;9.32;54.24
10115;BME280;5097;43.260;27.812;2022-10-17T00:38:02;101539.91;;;9.61;53.90
10115;BME280;5097;43.260;27.812;2022-10-17T00:40:46;101534.91;;;9.50;53.66
10115;BME280;5097;43.260;27.812;2022-10-17T00:43:48;101495.63;;;9.39;53.63
10115;BME280;5097;43.260;27.812;2022-10-17T00:46:36;101531.59;;;9.75;53.14
10115;BME280;5097;43.260;27.812;2022-10-17T00:49:25;101533.09;;;9.85;52.78
10115;BME280;5097;43.260;27.812;2022-10-17T00:52:13;101498.16;;;9.76;52.59
10115;BME280;5097;43.260;27.812;2022-10-17T00:55:02;101502.56;;;9.77;52.56
10115;BME280;5097;43.260;27.812;2022-10-17T00:57:47;101503.94;;;9.90;52.23
10115;BME280;5097;43.260;27.812;2022-10-17T01:00:35;101509.47;;;9.81;52.52
10115;BME280;5097;43.260;27.812;2022-10-17T01:03:19;101519.28;;;9.76;52.67
10115;BME280;5097;43.260;27.812;2022-10-17T01:06:03;101553.91;;;9.96;53.05
10115;BME280;5097;43.260;27.812;2022-10-17T01:08:47;101539.16;;;9.89;52.95
10115;BME280;5097;43.260;27.812;2022-10-17T01:11:36;101553.41;;;9.82;53.56
10115;BME280;5097;43.260;27.812;2022-10-17T01:14:28;101523.66;;;9.77;53.32
10115;BME280;5097;43.260;27.812;2022-10-17T01:17:20;101541.44;;;9.68;53.97
10115;BME280;5097;43.260;27.812;2022-10-17T01:20:26;101544.94;;;9.70;53.75
10115;BME280;5097;43.260;27.812;2022-10-17T01:23:38;101551.81;;;9.76;53.55
10115;BME280;5097;43.260;27.812;2022-10-17T01:26:38;101543.63;;;9.85;53.24
10115;BME280;5097;43.260;27.812;2022-10-17T01:29:33;101541.69;;;9.92;52.68
10115;BME280;5097;43.260;27.812;2022-10-17T01:32:29;101511.03;;;9.55;53.03
10115;BME280;5097;43.260;27.812;2022-10-17T01:35:20;101549.81;;;9.86;52.67
10115;BME280;5097;43.260;27.812;2022-10-17T01:38:09;101534.16;;;9.78;52.75
10115;BME280;5097;43.260;27.812;2022-10-17T01:41:00;101542.84;;;9.82;52.70
10115;BME280;5097;43.260;27.812;2022-10-17T01:43:50;101547.31;;;9.80;52.59
10115;BME280;5097;43.260;27.812;2022-10-17T01:46:36;101552.13;;;9.64;52.95
10115;BME280;5097;43.260;27.812;2022-10-17T01:49:24;101521.00;;;9.44;52.83
10115;BME280;5097;43.260;27.812;2022-10-17T01:52:14;101539.44;;;9.45;53.16
10115;BME280;5097;43.260;27.812;2022-10-17T01:55:05;101553.88;;;9.65;52.74
10115;BME280;5097;43.260;27.812;2022-10-17T01:57:52;101554.16;;;9.54;53.07
10115;BME280;5097;43.260;27.812;2022-10-17T02:00:39;101561.25;;;9.52;52.98
10115;BME280;5097;43.260;27.812;2022-10-17T02:03:27;101536.88;;;9.42;52.83
10115;BME280;5097;43.260;27.812;2022-10-17T02:06:13;101523.44;;;9.17;53.15
10115;BME280;5097;43.260;27.812;2022-10-17T02:08:57;101564.38;;;9.66;52.83
10115;BME280;5097;43.260;27.812;2022-10-17T02:11:40;101565.19;;;9.70;52.69
10115;BME280;5097;43.260;27.812;2022-10-17T02:14:33;101562.63;;;9.32;53.55
10115;BME280;5097;43.260;27.812;2022-10-17T02:17:27;101579.19;;;9.37;53.54
10115;BME280;5097;43.260;27.812;2022-10-17T02:20:21;101587.03;;;9.41;53.63
10115;BME280;5097;43.260;27.812;2022-10-17T02:23:12;101565.63;;;9.17;53.91
10115;BME280;5097;43.260;27.812;2022-10-17T02:26:06;101581.00;;;9.35;53.90
10115;BME280;5097;43.260;27.812;2022-10-17T02:29:00;101586.06;;;9.45;53.62
10115;BME280;5097;43.260;27.812;2022-10-17T02:31:48;101587.69;;;9.49;53.58
10115;BME280;5097;43.260;27.812;2022-10-17T02:34:35;101583.94;;;9.59;53.62
10115;BME280;5097;43.260;27.812;2022-10-17T02:37:24;101582.97;;;9.62;53.38
10115;BME280;5097;43.260;27.812;2022-10-17T02:40:11;101579.19;;;9.37;54.02
10115;BME280;5097;43.260;27.812;2022-10-17T02:42:58;101578.88;;;9.50;53.51
10115;BME280;5097;43.260;27.812;2022-10-17T02:45:43;101585.59;;;9.63;53.36
10115;BME280;5097;43.260;27.812;2022-10-17T02:48:34;101582.50;;;9.46;54.11
10115;BME280;5097;43.260;27.812;2022-10-17T02:51:27;101551.22;;;9.30;53.67
10115;BME280;5097;43.260;27.812;2022-10-17T02:54:17;101545.41;;;9.52;53.49
10115;BME280;5097;43.260;27.812;2022-10-17T02:57:07;101581.53;;;9.83;53.17
10115;BME280;5097;43.260;27.812;2022-10-17T02:59:54;101547.84;;;9.60;53.14
10115;BME280;5097;43.260;27.812;2022-10-17T03:02:41;101560.06;;;9.64;53.18
10115;BME280;5097;43.260;27.812;2022-10-17T03:05:27;101600.44;;;9.67;53.62
10115;BME280;5097;43.260;27.812;2022-10-17T03:08:11;101563.28;;;9.41;53.86
10115;BME280;5097;43.260;27.812;2022-10-17T03:10:55;101589.44;;;9.48;53.84
10115;BME280;5097;43.260;27.812;2022-10-17T03:13:43;101603.44;;;9.52;53.99
10115;BME280;5097;43.260;27.812;2022-10-17T03:16:26;101584.44;;;9.37;54.20
10115;BME280;5097;43.260;27.812;2022-10-17T03:19:10;101595.34;;;9.60;53.68
10115;BME280;5097;43.260;27.812;2022-10-17T03:21:54;101601.72;;;9.51;53.91
10115;BME280;5097;43.260;27.812;2022-10-17T03:24:38;101591.94;;;9.54;53.81
10115;BME280;5097;43.260;27.812;2022-10-17T03:27:22;101593.38;;;9.68;53.53
10115;BME280;5097;43.260;27.812;2022-10-17T03:30:08;101604.41;;;9.84;53.10
10115;BME280;5097;43.260;27.812;2022-10-17T03:32:53;101602.75;;;9.80;53.41
10115;BME280;5097;43.260;27.812;2022-10-17T03:35:38;101605.88;;;9.94;53.40
10115;BME280;5097;43.260;27.812;2022-10-17T03:38:23;101605.47;;;10.10;53.46
10115;BME280;5097;43.260;27.812;2022-10-17T03:41:07;101600.19;;;10.10;53.41
10115;BME280;5097;43.260;27.812;2022-10-17T03:43:52;101604.09;;;10.28;53.53
10115;BME280;5097;43.260;27.812;2022-10-17T03:46:39;101610.13;;;10.31;53.38
10115;BME280;5097;43.260;27.812;2022-10-17T03:49:23;101603.16;;;10.30;53.50
10115;BME280;5097;43.260;27.812;2022-10-17T03:52:10;101603.81;;;10.38;52.91
10115;BME280;5097;43.260;27.812;2022-10-17T03:54:54;101525.91;;;9.90;52.93
10115;BME280;5097;43.260;27.812;2022-10-17T03:57:38;101538.81;;;10.01;52.81
10115;BME280;5097;43.260;27.812;2022-10-17T04:00:27;101605.56;;;10.39;52.39
10115;BME280;5097;43.260;27.812;2022-10-17T04:03:14;101613.97;;;10.21;52.47
10115;BME280;5097;43.260;27.812;2022-10-17T04:05:59;101573.25;;;9.97;52.53
10115;BME280;5097;43.260;27.812;2022-10-17T04:08:46;101614.81;;;10.21;52.16
10115;BME280;5097;43.260;27.812;2022-10-17T04:11:42;101607.03;;;10.17;52.10
10115;BME280;5097;43.260;27.812;2022-10-17T04:14:27;101607.19;;;10.11;52.05
10115;BME280;5097;43.260;27.812;2022-10-17T04:17:11;101604.22;;;10.23;52.19
10115;BME280;5097;43.260;27.812;2022-10-17T04:19:56;101582.75;;;10.35;51.95
10115;BME280;5097;43.260;27.812;2022-10-17T04:22:41;101512.06;;;9.82;51.91
10115;BME280;5097;43.260;27.812;2022-10-17T04:25:25;101584.00;;;10.53;50.87
10115;BME280;5097;43.260;27.812;2022-10-17T04:28:09;101591.47;;;10.39;51.49
10115;BME280;5097;43.260;27.812;2022-10-17T04:30:56;101600.22;;;10.41;51.20
10115;BME280;5097;43.260;27.812;2022-10-17T04:33:46;101602.50;;;10.53;50.64
10115;BME280;5097;43.260;27.812;2022-10-17T04:36:31;101608.09;;;10.43;50.85
10115;BME280;5097;43.260;27.812;2022-10-17T04:39:15;101617.78;;;10.44;50.66
10115;BME280;5097;43.260;27.812;2022-10-17T04:42:00;101612.13;;;10.23;50.89
10115;BME280;5097;43.260;27.812;2022-10-17T04:44:44;101623.66;;;10.53;50.40
10115;BME280;5097;43.260;27.812;2022-10-17T04:47:31;101624.88;;;10.71;50.32
10115;BME280;5097;43.260;27.812;2022-10-17T04:50:15;101635.50;;;10.70;50.31
10115;BME280;5097;43.260;27.812;2022-10-17T04:53:18;101649.50;;;10.73;50.06
10115;BME280;5097;43.260;27.812;2022-10-17T04:56:06;101617.34;;;10.57;50.29
10115;BME280;5097;43.260;27.812;2022-10-17T04:58:51;101619.47;;;10.45;50.33
10115;BME280;5097;43.260;27.812;2022-10-17T05:01:36;101653.03;;;10.72;50.16
10115;BME280;5097;43.260;27.812;2022-10-17T05:04:21;101653.31;;;10.63;50.62
10115;BME280;5097;43.260;27.812;2022-10-17T05:07:07;101656.94;;;10.59;50.74
10115;BME280;5097;43.260;27.812;2022-10-17T05:10:16;101657.31;;;10.47;51.14
10115;BME280;5097;43.260;27.812;2022-10-17T05:13:02;101656.59;;;10.71;50.40
10115;BME280;5097;43.260;27.812;2022-10-17T05:15:48;101670.25;;;10.56;50.90
10115;BME280;5097;43.260;27.812;2022-10-17T05:18:32;101673.44;;;10.69;51.03
10115;BME280;5097;43.260;27.812;2022-10-17T05:21:16;101655.91;;;10.65;51.24
10115;BME280;5097;43.260;27.812;2022-10-17T05:24:04;101685.91;;;10.64;51.39
10115;BME280;5097;43.260;27.812;2022-10-17T05:26:50;101687.72;;;10.93;51.42
10115;BME280;5097;43.260;27.812;2022-10-17T05:29:34;101683.56;;;11.13;51.41
10115;BME280;5097;43.260;27.812;2022-10-17T05:32:29;101693.53;;;11.04;51.64
10115;BME280;5097;43.260;27.812;2022-10-17T05:35:13;101693.59;;;11.31;51.32
10115;BME280;5097;43.260;27.812;2022-10-17T05:37:57;101690.22;;;11.26;51.25
10115;BME280;5097;43.260;27.812;2022-10-17T05:40:44;101695.78;;;11.45;51.03
10115;BME280;5097;43.260;27.812;2022-10-17T05:43:30;101677.91;;;11.25;51.12
10115;BME280;5097;43.260;27.812;2022-10-17T05:46:14;101694.38;;;11.35;50.46
10115;BME280;5097;43.260;27.812;2022-10-17T05:48:58;101706.38;;;11.73;50.40
10115;BME280;5097;43.260;27.812;2022-10-17T05:51:42;101714.50;;;11.67;50.37
10115;BME280;5097;43.260;27.812;2022-10-17T05:54:26;101703.31;;;11.86;50.29
10115;BME280;5097;43.260;27.812;2022-10-17T05:57:10;101721.63;;;12.20;50.38
10115;BME280;5097;43.260;27.812;2022-10-17T05:59:56;101732.56;;;12.36;49.64
10115;BME280;5097;43.260;27.812;2022-10-17T06:02:40;101708.41;;;12.44;49.25
10115;BME280;5097;43.260;27.812;2022-10-17T06:05:26;101743.63;;;12.73;50.03
10115;BME280;5097;43.260;27.812;2022-10-17T06:08:11;101742.84;;;12.95;49.53
10115;BME280;5097;43.260;27.812;2022-10-17T06:10:57;101741.50;;;12.83;49.89
10115;BME280;5097;43.260;27.812;2022-10-17T06:13:41;101711.88;;;12.71;49.94
10115;BME280;5097;43.260;27.812;2022-10-17T06:16:31;101745.72;;;13.12;49.98
10115;BME280;5097;43.260;27.812;2022-10-17T06:19:15;101748.88;;;13.22;50.07
10115;BME280;5097;43.260;27.812;2022-10-17T06:22:00;101755.91;;;12.99;50.33
10115;BME280;5097;43.260;27.812;2022-10-17T06:24:45;101750.91;;;13.39;49.74
10115;BME280;5097;43.260;27.812;2022-10-17T06:27:29;101732.22;;;13.42;49.21
10115;BME280;5097;43.260;27.812;2022-10-17T06:30:14;101750.69;;;13.67;49.40
10115;BME280;5097;43.260;27.812;2022-10-17T06:33:01;101749.47;;;13.76;49.62
10115;BME280;5097;43.260;27.812;2022-10-17T06:35:50;101719.31;;;13.55;50.48
10115;BME280;5097;43.260;27.812;2022-10-17T06:38:34;101754.88;;;13.51;52.42
10115;BME280;5097;43.260;27.812;2022-10-17T06:41:22;101761.56;;;13.61;52.67
10115;BME280;5097;43.260;27.812;2022-10-17T06:44:08;101752.44;;;13.90;52.04
10115;BME280;5097;43.260;27.812;2022-10-17T06:47:12;101757.03;;;14.07;52.98
10115;BME280;5097;43.260;27.812;2022-10-17T06:50:02;101766.88;;;14.05;53.72
10115;BME280;5097;43.260;27.812;2022-10-17T06:52:53;101771.66;;;14.18;54.19
10115;BME280;5097;43.260;27.812;2022-10-17T06:55:55;101764.41;;;14.64;53.45
10115;BME280;5097;43.260;27.812;2022-10-17T06:59:08;101767.44;;;14.55;53.88
10115;BME280;5097;43.260;27.812;2022-10-17T07:01:54;101767.06;;;15.04;53.69
10115;BME280;5097;43.260;27.812;2022-10-17T07:04:39;101773.19;;;15.06;55.27
10115;BME280;5097;43.260;27.812;2022-10-17T07:07:30;101777.44;;;15.29;55.59
10115;BME280;5097;43.260;27.812;2022-10-17T07:10:15;101763.47;;;15.24;56.29
10115;BME280;5097;43.260;27.812;2022-10-17T07:12:59;101772.69;;;15.36;56.39
10115;BME280;5097;43.260;27.812;2022-10-17T07:15:46;101768.88;;;15.22;57.05
10115;BME280;5097;43.260;27.812;2022-10-17T07:18:31;101785.50;;;15.47;56.41
10115;BME280;5097;43.260;27.812;2022-10-17T07:21:15;101774.69;;;15.88;55.64
10115;BME280;5097;43.260;27.812;2022-10-17T07:24:01;101775.78;;;15.84;55.65
10115;BME280;5097;43.260;27.812;2022-10-17T07:26:45;101776.25;;;15.92;55.70
10115;BME280;5097;43.260;27.812;2022-10-17T07:29:29;101764.59;;;15.75;56.20
10115;BME280;5097;43.260;27.812;2022-10-17T07:32:20;101771.41;;;16.18;55.38
10115;BME280;5097;43.260;27.812;2022-10-17T07:35:04;101761.09;;;16.12;55.13
10115;BME280;5097;43.260;27.812;2022-10-17T07:37:47;101774.34;;;16.31;54.97
10115;BME280;5097;43.260;27.812;2022-10-17T07:40:35;101717.72;;;16.08;53.73
10115;BME280;5097;43.260;27.812;2022-10-17T07:43:19;101769.16;;;16.45;53.22
10115;BME280;5097;43.260;27.812;2022-10-17T07:46:03;101777.34;;;16.75;52.52
10115;BME280;5097;43.260;27.812;2022-10-17T07:48:48;101771.59;;;16.50;53.61
10115;BME280;5097;43.260;27.812;2022-10-17T07:51:34;101772.69;;;16.46;54.38
10115;BME280;5097;43.260;27.812;2022-10-17T07:54:18;101768.84;;;16.34;54.79
10115;BME280;5097;43.260;27.812;2022-10-17T07:57:04;101777.25;;;16.44;54.74
10115;BME280;5097;43.260;27.812;2022-10-17T07:59:47;101771.97;;;16.24;55.02
10115;BME280;5097;43.260;27.812;2022-10-17T08:02:32;101770.94;;;16.45;54.91
10115;BME280;5097;43.260;27.812;2022-10-17T08:05:16;101760.69;;;16.54;54.47
10115;BME280;5097;43.260;27.812;2022-10-17T08:08:00;101764.97;;;16.74;53.58
10115;BME280;5097;43.260;27.812;2022-10-17T08:10:44;101768.31;;;16.78;53.19
10115;BME280;5097;43.260;27.812;2022-10-17T08:13:29;101779.75;;;16.47;53.91
10115;BME280;5097;43.260;27.812;2022-10-17T08:16:12;101784.28;;;16.45;53.96
10115;BME280;5097;43.260;27.812;2022-10-17T08:18:56;101779.56;;;16.67;53.57
10115;BME280;5097;43.260;27.812;2022-10-17T08:21:40;101774.00;;;16.89;52.70
10115;BME280;5097;43.260;27.812;2022-10-17T08:24:26;101771.66;;;17.33;52.05
10115;BME280;5097;43.260;27.812;2022-10-17T08:27:10;101776.34;;;17.12;52.69
10115;BME280;5097;43.260;27.812;2022-10-17T08:29:56;101780.94;;;17.09;52.76
10115;BME280;5097;43.260;27.812;2022-10-17T08:32:40;101770.28;;;17.25;52.31
10115;BME280;5097;43.260;27.812;2022-10-17T08:35:24;101789.22;;;17.21;52.62
10115;BME280;5097;43.260;27.812;2022-10-17T08:38:07;101773.19;;;17.21;52.81
10115;BME280;5097;43.260;27.812;2022-10-17T08:40:57;101788.53;;;17.33;52.92
10115;BME280;5097;43.260;27.812;2022-10-17T08:43:54;101753.66;;;17.36;52.49
10115;BME280;5097;43.260;27.812;2022-10-17T08:46:46;101742.50;;;17.92;51.12
10115;BME280;5097;43.260;27.812;2022-10-17T08:49:36;101768.84;;;18.14;50.34
10115;BME280;5097;43.260;27.812;2022-10-17T08:52:29;101747.41;;;17.84;50.20
10115;BME280;5097;43.260;27.812;2022-10-17T08:55:21;101761.38;;;17.73;50.92
10115;BME280;5097;43.260;27.812;2022-10-17T08:58:12;101755.13;;;17.42;50.76
10115;BME280;5097;43.260;27.812;2022-10-17T09:01:03;101783.56;;;17.59;50.97
10115;BME280;5097;43.260;27.812;2022-10-17T09:04:11;101758.47;;;17.30;51.19
10115;BME280;5097;43.260;27.812;2022-10-17T09:07:02;101784.16;;;17.32;50.49
10115;BME280;5097;43.260;27.812;2022-10-17T09:09:53;101788.03;;;17.74;50.03
10115;BME280;5097;43.260;27.812;2022-10-17T09:12:45;101742.69;;;17.41;50.66
10115;BME280;5097;43.260;27.812;2022-10-17T09:15:39;101752.25;;;17.29;50.76
10115;BME280;5097;43.260;27.812;2022-10-17T09:18:27;101793.97;;;17.80;49.42
10115;BME280;5097;43.260;27.812;2022-10-17T09:21:20;101754.31;;;17.40;49.27
10115;BME280;5097;43.260;27.812;2022-10-17T09:24:10;101782.25;;;17.66;48.97
10115;BME280;5097;43.260;27.812;2022-10-17T09:26:57;101788.34;;;18.00;48.31
10115;BME280;5097;43.260;27.812;2022-10-17T09:29:45;101741.91;;;17.71;48.95
10115;BME280;5097;43.260;27.812;2022-10-17T09:32:31;101776.31;;;17.93;49.09
10115;BME280;5097;43.260;27.812;2022-10-17T09:35:16;101716.16;;;17.54;48.64
10115;BME280;5097;43.260;27.812;2022-10-17T09:38:02;101782.53;;;17.78;48.77
10115;BME280;5097;43.260;27.812;2022-10-17T09:40:50;101773.50;;;18.11;48.66
10115;BME280;5097;43.260;27.812;2022-10-17T09:43:38;101727.84;;;18.14;48.31
10115;BME280;5097;43.260;27.812;2022-10-17T09:46:25;101760.22;;;18.39;48.19
10115;BME280;5097;43.260;27.812;2022-10-17T09:49:16;101725.00;;;18.17;48.09
10115;BME280;5097;43.260;27.812;2022-10-17T09:52:03;101728.53;;;18.62;47.26
10115;BME280;5097;43.260;27.812;2022-10-17T09:54:51;101727.50;;;18.20;47.86
10115;BME280;5097;43.260;27.812;2022-10-17T09:57:51;101765.47;;;18.41;47.39
10115;BME280;5097;43.260;27.812;2022-10-17T10:00:37;101777.22;;;18.08;47.74
10115;BME280;5097;43.260;27.812;2022-10-17T10:03:23;101744.53;;;17.87;48.50
10115;BME280;5097;43.260;27.812;2022-10-17T10:06:12;101768.94;;;18.13;48.78
10115;BME280;5097;43.260;27.812;2022-10-17T10:08:57;101773.88;;;18.04;49.45
10115;BME280;5097;43.260;27.812;2022-10-17T10:11:47;101775.69;;;18.04;49.03
10115;BME280;5097;43.260;27.812;2022-10-17T10:14:34;101733.72;;;17.74;49.44
10115;BME280;5097;43.260;27.812;2022-10-17T10:17:33;101769.47;;;18.03;48.80
10115;BME280;5097;43.260;27.812;2022-10-17T10:20:28;101746.97;;;17.75;48.93
10115;BME280;5097;43.260;27.812;2022-10-17T10:23:14;101763.72;;;17.95;49.21
10115;BME280;5097;43.260;27.812;2022-10-17T10:26:01;101753.75;;;18.43;48.25
10115;BME280;5097;43.260;27.812;2022-10-17T10:28:53;101746.69;;;18.71;48.03
10115;BME280;5097;43.260;27.812;2022-10-17T10:31:38;101756.31;;;18.15;48.53
10115;BME280;5097;43.260;27.812;2022-10-17T10:34:25;101750.91;;;18.00;48.04
10115;BME280;5097;43.260;27.812;2022-10-17T10:37:17;101706.81;;;18.38;46.36
10115;BME280;5097;43.260;27.812;2022-10-17T10:40:03;101742.31;;;18.85;46.14
10115;BME280;5097;43.260;27.812;2022-10-17T10:42:51;101736.47;;;19.07;46.09
10115;BME280;5097;43.260;27.812;2022-10-17T10:45:41;101747.84;;;18.82;46.52
10115;BME280;5097;43.260;27.812;2022-10-17T10:48:33;101717.41;;;18.39;46.99
10115;BME280;5097;43.260;27.812;2022-10-17T10:51:22;101744.75;;;18.45;47.62
10115;BME280;5097;43.260;27.812;2022-10-17T10:54:10;101708.06;;;18.47;45.97
10115;BME280;5097;43.260;27.812;2022-10-17T10:56:59;101708.03;;;18.32;46.58
10115;BME280;5097;43.260;27.812;2022-10-17T10:59:53;101701.06;;;18.44;46.99
10115;BME280;5097;43.260;27.812;2022-10-17T11:02:46;101727.88;;;19.02;45.35
10115;BME280;5097;43.260;27.812;2022-10-17T11:05:40;101701.94;;;18.59;45.15
10115;BME280;5097;43.260;27.812;2022-10-17T11:08:28;101727.28;;;18.97;45.23
10115;BME280;5097;43.260;27.812;2022-10-17T11:11:22;101719.56;;;19.06;45.42
10115;BME280;5097;43.260;27.812;2022-10-17T11:14:12;101698.03;;;18.93;44.27
10115;BME280;5097;43.260;27.812;2022-10-17T11:17:04;101730.06;;;19.09;44.57
10115;BME280;5097;43.260;27.812;2022-10-17T11:20:04;101682.44;;;19.00;44.84
10115;BME280;5097;43.260;27.812;2022-10-17T11:22:53;101697.31;;;19.33;44.31
10115;BME280;5097;43.260;27.812;2022-10-17T11:25:39;101702.31;;;18.82;45.36
10115;BME280;5097;43.260;27.812;2022-10-17T11:28:24;101687.59;;;18.74;45.44
10115;BME280;5097;43.260;27.812;2022-10-17T11:31:11;101684.72;;;18.63;44.96
10115;BME280;5097;43.260;27.812;2022-10-17T11:33:58;101707.00;;;19.21;44.09
10115;BME280;5097;43.260;27.812;2022-10-17T11:36:45;101682.63;;;19.12;44.42
10115;BME280;5097;43.260;27.812;2022-10-17T11:39:37;101703.06;;;19.27;44.48
10115;BME280;5097;43.260;27.812;2022-10-17T11:42:27;101702.16;;;19.41;44.24
10115;BME280;5097;43.260;27.812;2022-10-17T11:45:17;101709.22;;;19.15;44.10
10115;BME280;5097;43.260;27.812;2022-10-17T11:48:06;101709.00;;;19.03;44.19
10115;BME280;5097;43.260;27.812;2022-10-17T11:51:00;101719.94;;;19.00;43.87
10115;BME280;5097;43.260;27.812;2022-10-17T11:54:12;101706.31;;;19.18;43.37
10115;BME280;5097;43.260;27.812;2022-10-17T11:57:19;101708.94;;;19.47;43.16
10115;BME280;5097;43.260;27.812;2022-10-17T12:00:29;101700.13;;;19.45;43.42
10115;BME280;5097;43.260;27.812;2022-10-17T12:03:24;101708.84;;;19.48;42.93
10115;BME280;5097;43.260;27.812;2022-10-17T12:06:16;101703.22;;;19.66;42.37
10115;BME280;5097;43.260;27.812;2022-10-17T12:09:14;101707.50;;;19.68;42.61
10115;BME280;5097;43.260;27.812;2022-10-17T12:12:02;101715.38;;;19.30;42.09
10115;BME280;5097;43.260;27.812;2022-10-17T12:14:46;101703.63;;;19.32;42.11
10115;BME280;5097;43.260;27.812;2022-10-17T12:17:31;101709.44;;;19.39;42.78
10115;BME280;5097;43.260;27.812;2022-10-17T12:20:35;101703.25;;;19.51;43.15
10115;BME280;5097;43.260;27.812;2022-10-17T12:23:24;101700.44;;;19.67;42.98
10115;BME280;5097;43.260;27.812;2022-10-17T12:26:24;101706.56;;;19.69;42.93
10115;BME280;5097;43.260;27.812;2022-10-17T12:29:24;101706.22;;;19.61;42.49
10115;BME280;5097;43.260;27.812;2022-10-17T12:32:10;101710.41;;;19.23;43.16
10115;BME280;5097;43.260;27.812;2022-10-17T12:34:55;101721.00;;;19.39;41.30
10115;BME280;5097;43.260;27.812;2022-10-17T12:38:00;101721.22;;;19.36;42.07
10115;BME280;5097;43.260;27.812;2022-10-17T12:40:52;101718.84;;;19.32;42.86
10115;BME280;5097;43.260;27.812;2022-10-17T12:43:48;101711.06;;;19.41;43.15
10115;BME280;5097;43.260;27.812;2022-10-17T12:46:47;101703.09;;;19.67;42.44
10115;BME280;5097;43.260;27.812;2022-10-17T12:49:41;101706.13;;;19.75;42.79
10115;BME280;5097;43.260;27.812;2022-10-17T12:52:52;101712.38;;;19.49;43.35
10115;BME280;5097;43.260;27.812;2022-10-17T12:55:39;101709.81;;;19.74;42.30
10115;BME280;5097;43.260;27.812;2022-10-17T12:58:23;101717.28;;;19.69;42.54
10115;BME280;5097;43.260;27.812;2022-10-17T13:01:17;101705.81;;;19.40;42.45
10115;BME280;5097;43.260;27.812;2022-10-17T13:04:08;101590.00;;;18.66;42.69
10115;BME280;5097;43.260;27.812;2022-10-17T13:06:55;101680.13;;;19.08;43.60
10115;BME280;5097;43.260;27.812;2022-10-17T13:09:42;101686.59;;;19.33;43.35
10115;BME280;5097;43.260;27.812;2022-10-17T13:12:27;101703.94;;;19.55;43.23
10115;BME280;5097;43.260;27.812;2022-10-17T13:15:15;101704.50;;;19.60;43.21
10115;BME280;5097;43.260;27.812;2022-10-17T13:18:01;101686.94;;;19.41;43.08
10115;BME280;5097;43.260;27.812;2022-10-17T13:20:57;101712.53;;;19.60;42.68
10115;BME280;5097;43.260;27.812;2022-10-17T13:23:41;101692.53;;;19.24;43.19
10115;BME280;5097;43.260;27.812;2022-10-17T13:26:27;101705.53;;;19.30;43.79
10115;BME280;5097;43.260;27.812;2022-10-17T13:29:13;101709.22;;;19.42;43.45
10115;BME280;5097;43.260;27.812;2022-10-17T13:32:00;101659.34;;;19.26;43.52
10115;BME280;5097;43.260;27.812;2022-10-17T13:35:04;101709.22;;;19.42;43.82
10115;BME280;5097;43.260;27.812;2022-10-17T13:37:49;101712.09;;;19.12;43.88
10115;BME280;5097;43.260;27.812;2022-10-17T13:40:39;101709.19;;;19.29;43.69
10115;BME280;5097;43.260;27.812;2022-10-17T13:43:31;101721.06;;;19.25;43.83
10115;BME280;5097;43.260;27.812;2022-10-17T13:46:24;101723.28;;;18.89;44.30
10115;BME280;5097;43.260;27.812;2022-10-17T13:49:22;101721.81;;;19.27;43.50
10115;BME280;5097;43.260;27.812;2022-10-17T13:52:17;101727.97;;;19.00;44.12
10115;BME280;5097;43.260;27.812;2022-10-17T13:55:07;101718.56;;;19.22;43.71
10115;BME280;5097;43.260;27.812;2022-10-17T13:57:54;101709.78;;;19.20;43.91
10115;BME280;5097;43.260;27.812;2022-10-17T14:00:38;101718.19;;;19.14;43.88
10115;BME280;5097;43.260;27.812;2022-10-17T14:03:22;101721.72;;;18.85;44.17
10115;BME280;5097;43.260;27.812;2022-10-17T14:06:23;101710.66;;;18.77;44.66
10115;BME280;5097;43.260;27.812;2022-10-17T14:09:18;101712.84;;;18.85;45.10
10115;BME280;5097;43.260;27.812;2022-10-17T14:12:08;101724.88;;;18.77;45.66
10115;BME280;5097;43.260;27.812;2022-10-17T14:14:54;101726.03;;;18.59;46.23
10115;BME280;5097;43.260;27.812;2022-10-17T14:17:53;101723.44;;;18.57;46.52
10115;BME280;5097;43.260;27.812;2022-10-17T14:20:39;101722.50;;;18.58;46.54
10115;BME280;5097;43.260;27.812;2022-10-17T14:23:43;101729.63;;;18.29;47.42
10115;BME280;5097;43.260;27.812;2022-10-17T14:26:28;101740.78;;;18.21;47.62
10115;BME280;5097;43.260;27.812;2022-10-17T14:29:21;101739.72;;;18.24;47.72
10115;BME280;5097;43.260;27.812;2022-10-17T14:32:06;101734.66;;;18.19;47.79
10115;BME280;5097;43.260;27.812;2022-10-17T14:34:52;101709.38;;;17.95;47.98
10115;BME280;5097;43.260;27.812;2022-10-17T14:37:58;101722.00;;;17.76;48.62
10115;BME280;5097;43.260;27.812;2022-10-17T14:40:48;101743.88;;;17.99;48.79
10115;BME280;5097;43.260;27.812;2022-10-17T14:43:34;101759.00;;;18.15;48.55
10115;BME280;5097;43.260;27.812;2022-10-17T14:46:18;101722.06;;;17.91;48.73